ADDS METAR Data INFO
IDs: Format: Raw Decoded Include TAF

Data at: 0442 UTC 24 Apr 2018

KHRX 240435Z AUTO 14010KT 10SM CLR 15/05 A3006 RMK AO2 T01460052
KHRX 240415Z AUTO 11009KT 7SM CLR 14/05 A3007 RMK AO2 T01430052
KHRX 240355Z AUTO 12010KT 10SM CLR 14/05 A3006 RMK AO2 T01400054
KHRX 240335Z AUTO 13008KT 10SM CLR 14/06 A3006 RMK AO2 T01410055
KHRX 240315Z AUTO 13007KT 10SM CLR 15/05 A3005 RMK AO2 T01540052
KHRX 240255Z AUTO 13008KT 10SM CLR 16/05 A3005 RMK AO2 T01600052
KHRX 240235Z AUTO 14008KT 10SM CLR 16/05 A3004 RMK AO2 T01610050
KHRX 240215Z AUTO 11009KT 10SM CLR 17/05 A3004 RMK AO2 T01670049
KHRX 240155Z AUTO 14009KT 10SM CLR 19/04 A3003 RMK AO2 T01930039
KHRX 240135Z AUTO 15008KT 10SM CLR 21/04 A3002 RMK AO2 T02100035
KHRX 240115Z AUTO 16010KT 10SM CLR 23/03 A3002 RMK AO2 T02290033
KHRX 240055Z AUTO 17011G15KT 10SM CLR A3002 RMK AO2
KHRX 240035Z AUTO 18012KT 7SM CLR A3002 RMK AO2
KHRX 240015Z AUTO 17010KT 10SM CLR A3002 RMK AO2
KHRX 232355Z AUTO 20013KT 10SM CLR A3002 RMK AO2
KHRX 232335Z AUTO 20011KT 10SM CLR A3003 RMK AO2
KHRX 232315Z AUTO 17011G17KT 10SM CLR A3003 RMK AO2
KHRX 232255Z AUTO 19010KT 10SM CLR A3004 RMK AO2
KHRX 232235Z AUTO 19015KT 10SM CLR A3004 RMK AO2
KHRX 232215Z AUTO 20010G18KT 10SM CLR A3005 RMK AO2
KHRX 232155Z AUTO 22010KT 10SM CLR A3006 RMK AO2
KHRX 232135Z AUTO 21012G18KT 10SM CLR 25/04 A3007 RMK AO2 T02490042
KHRX 232115Z AUTO 22007G16KT 10SM CLR A3008 RMK AO2
KHRX 232055Z AUTO 19015G19KT 10SM CLR A3009 RMK AO2
KHRX 232035Z AUTO 20009KT 10SM CLR A3010 RMK AO2
KHRX 232015Z AUTO 19009G20KT 10SM CLR 22/05 A3010 RMK AO2 T02240046
KHRX 231955Z AUTO 18009G17KT 160V230 10SM CLR A3012 RMK AO2
KHRX 231935Z AUTO 16007G17KT 10SM CLR 22/05 A3013 RMK AO2 T02150047
KHRX 231915Z AUTO 19007G17KT 10SM CLR 21/05 A3014 RMK AO2 T02080048
KHRX 231855Z AUTO 19006KT 10SM CLR 20/05 A3014 RMK AO2 T02010048
KHRX 231835Z AUTO 19009G15KT 10SM CLR 20/05 A3016 RMK AO2 T01970050
KHRX 231815Z AUTO 18005G14KT 10SM CLR 19/05 A3017 RMK AO2 T01880048
KHRX 231755Z AUTO 22007G14KT 10SM CLR 19/05 A3018 RMK AO2 T01890049 10190 20015
KHRX 231735Z AUTO 21008KT 180V250 10SM CLR 18/05 A3019 RMK AO2 T01820052
KHRX 231715Z AUTO 23004G15KT 10SM CLR 18/05 A3020 RMK AO2 T01760048
KHRX 231655Z AUTO 22008KT 10SM CLR 17/05 A3021 RMK AO2 T01670047
KHRX 231635Z AUTO 20006KT 10SM CLR 17/05 A3021 RMK AO2 T01670049
KHRX 231615Z AUTO 16005KT 10SM CLR 16/05 A3021 RMK AO2 T01600050
KHRX 231555Z AUTO 16004KT 10SM CLR 15/05 A3021 RMK AO2 T01490046
KHRX 231535Z AUTO 15004KT 10SM CLR 14/05 A3021 RMK AO2 T01430052
KHRX 231515Z AUTO 15003KT 7SM CLR 13/06 A3022 RMK AO2 T01290062
KHRX 231455Z AUTO 15003KT 10SM CLR 12/06 A3022 RMK AO2 T01170058
KHRX 231435Z AUTO 00000KT 10SM CLR 10/06 A3022 RMK AO2 T01030059
KHRX 231415Z AUTO 00000KT 10SM CLR 09/06 A3022 RMK AO2 T00860057
KHRX 231355Z AUTO 00000KT 7SM CLR 07/05 A3022 RMK AO2 T00720051
KHRX 231335Z AUTO 00000KT 7SM CLR 06/04 A3022 RMK AO2 T00570044
KHRX 231315Z AUTO 00000KT 7SM CLR 04/03 A3022 RMK AO2 T00390029
KHRX 231255Z AUTO 00000KT 7SM CLR 03/02 A3021 RMK AO2 T00250016
KHRX 231235Z AUTO 33003KT 7SM CLR 02/01 A3021 RMK AO2 T00160007
KHRX 231215Z AUTO 31003KT 7SM CLR 02/01 A3020 RMK AO2 T00160005
KHRX 231155Z AUTO 00000KT 10SM CLR 03/02 A3020 RMK AO2 T00280015 10072 20027
KHRX 231135Z AUTO 00000KT 10SM CLR 04/02 A3019 RMK AO2 T00350020
KHRX 231115Z AUTO 00000KT 10SM CLR 03/02 A3019 RMK AO2 T00310019
KHRX 231055Z AUTO 00000KT 10SM CLR 03/02 A3019 RMK AO2 T00310018
KHRX 231035Z AUTO 30003KT 10SM CLR 03/02 A3019 RMK AO2 T00300019
KHRX 231015Z AUTO 00000KT 10SM CLR 04/02 A3019 RMK AO2 T00350022
KHRX 230955Z AUTO 02004KT 10SM CLR 04/02 A3019 RMK AO2 T00350024
KHRX 230935Z AUTO 36005KT 7SM CLR 04/03 A3019 RMK AO2 T00360025
KHRX 230915Z AUTO 35006KT 10SM CLR 04/03 A3018 RMK AO2 T00390026
KHRX 230855Z AUTO 35005KT 10SM CLR 04/03 A3018 RMK AO2 T00360025
KHRX 230835Z AUTO 32004KT 10SM CLR 05/03 A3018 RMK AO2 T00450033
KHRX 230815Z AUTO 30005KT 10SM CLR 05/03 A3018 RMK AO2 T00460032
KHRX 230755Z AUTO 30005KT 10SM CLR 05/04 A3019 RMK AO2 T00530042
KHRX 230735Z AUTO 28005KT 7SM CLR 05/04 A3020 RMK AO2 T00520042
KHRX 230715Z AUTO 28004KT 10SM CLR 05/04 A3020 RMK AO2 T00530040
KHRX 230655Z AUTO 00000KT 10SM CLR 06/04 A3019 RMK AO2 T00560040
KHRX 230635Z AUTO 00000KT 10SM CLR 06/04 A3019 RMK AO2 T00630040
KHRX 230615Z AUTO 00000KT 10SM CLR 07/04 A3019 RMK AO2 T00720043
KHRX 230555Z AUTO 00000KT 10SM CLR 07/04 A3018 RMK AO2 T00680043 10166 20066 401750032
KHRX 230535Z AUTO 00000KT 10SM CLR 07/05 A3017 RMK AO2 T00700045
KHRX 230515Z AUTO 00000KT 10SM CLR 07/05 A3018 RMK AO2 T00700046
KHRX 230455Z AUTO 00000KT 10SM CLR 07/05 A3017 RMK AO2 T00700049
KHRX 230435Z AUTO 10005KT 10SM CLR 07/05 A3017 RMK AO2 T00730053
KHRX 230415Z AUTO 07004KT 10SM CLR 08/05 A3017 RMK AO2 T00760054
KHRX 230355Z AUTO 06004KT 10SM CLR 09/06 A3017 RMK AO2 T00850056
KHRX 230335Z AUTO 06006KT 10SM CLR 09/06 A3017 RMK AO2 T00880057
KHRX 230315Z AUTO 07005KT 10SM CLR 09/06 A3017 RMK AO2 T00900055
KHRX 230255Z AUTO 07005KT 10SM CLR 10/05 A3016 RMK AO2 T00950054
KHRX 230235Z AUTO 07005KT 10SM CLR 10/06 A3016 RMK AO2 T01010056
KHRX 230215Z AUTO 08006KT 10SM CLR 11/06 A3015 RMK AO2 T01110058
KHRX 230155Z AUTO 07006KT 10SM CLR 12/06 A3014 RMK AO2 T01150057
KHRX 230135Z AUTO 08006KT 10SM CLR 13/06 A3014 RMK AO2 T01280058
KHRX 230115Z AUTO 09006KT 10SM CLR 14/06 A3013 RMK AO2 T01360060
KHRX 230055Z AUTO 07004KT 10SM CLR 15/06 A3013 RMK AO2 T01460057
KHRX 230035Z AUTO 05007KT 10SM CLR 15/05 A3013 RMK AO2 T01540053
KHRX 230015Z AUTO 06006KT 10SM CLR 16/05 A3013 RMK AO2 T01580053
KHRX 222355Z AUTO 05008KT 7SM CLR 16/06 A3013 RMK AO2 T01640057 10175 20144
KHRX 222335Z AUTO 05006KT 10SM CLR 16/06 A3014 RMK AO2 T01600057
KHRX 222315Z AUTO 05008KT 10SM CLR 17/06 A3014 RMK AO2 T01690062
KHRX 222255Z AUTO 04004KT 10SM CLR 17/06 A3013 RMK AO2 T01670058
KHRX 222235Z AUTO 07007KT 7SM CLR 17/06 A3013 RMK AO2 T01720060
KHRX 222215Z AUTO 05008KT 10SM CLR 17/06 A3013 RMK AO2 T01680062
KHRX 222155Z AUTO 06005KT 10SM CLR 17/06 A3014 RMK AO2 T01680063
KHRX 222135Z AUTO 05003KT 7SM CLR 17/06 A3014 RMK AO2 T01670063
KHRX 222115Z AUTO 05004KT 10SM CLR 16/06 A3016 RMK AO2 T01640063
KHRX 222055Z AUTO 09010G16KT 10SM CLR 16/07 A3016 RMK AO2 T01640066
KHRX 222035Z AUTO 05010G15KT 10SM CLR 17/07 A3016 RMK AO2 T01650067
KHRX 222015Z AUTO 10007G16KT 10SM SCT042 SCT048 17/07 A3017 RMK AO2 T01650068
KHRX 221955Z AUTO 06011G16KT 10SM SCT034 BKN044 17/07 A3017 RMK AO2 T01700070
KHRX 221935Z AUTO 05009G14KT 10SM SCT036 BKN044 16/07 A3017 RMK AO2 T01640067
KHRX 221915Z AUTO 04005KT 10SM SCT037 BKN044 17/06 A3018 RMK AO2 T01670062
KHRX 221855Z AUTO 02007KT 10SM BKN035 BKN042 16/06 A3018 RMK AO2 T01610060
KHRX 221835Z AUTO 02004KT 10SM BKN035 15/06 A3019 RMK AO2 T01530061
KHRX 221815Z AUTO 35006KT 10SM BKN032 BKN039 15/06 A3020 RMK AO2 T01510061
KHRX 221755Z AUTO 34004KT 10SM BKN030 BKN035 14/06 A3020 RMK AO2 T01400059 10145 20032
KHRX 221735Z AUTO 32005KT 7SM BKN028 14/06 A3021 RMK AO2 T01380060
KHRX 221715Z AUTO 32006KT 10SM BKN028 14/06 A3022 RMK AO2 T01370057
KHRX 221655Z AUTO 01008G14KT 10SM SCT026 13/06 A3022 RMK AO2 T01330058